sensor_id;sensor_type;location;lat;lon;timestamp;pressure;altitude;pressure_sealevel;temperature;humidity
57606;BME280;43430;48.204;11.556;2023-04-25T00:01:48;95385.38;;;6.57;100.00
57606;BME280;43430;48.204;11.556;2023-04-25T00:04:13;95379.69;;;6.60;100.00
57606;BME280;43430;48.204;11.556;2023-04-25T00:06:39;95374.44;;;6.60;100.00
57606;BME280;43430;48.204;11.556;2023-04-25T00:09:05;95378.09;;;6.59;100.00
57606;BME280;43430;48.204;11.556;2023-04-25T00:11:33;95378.47;;;6.63;100.00
57606;BME280;43430;48.204;11.556;2023-04-25T00:13:58;95387.00;;;6.52;100.00
57606;BME280;43430;48.204;11.556;2023-04-25T00:16:25;95392.66;;;6.49;100.00
57606;BME280;43430;48.204;11.556;2023-04-25T00:18:50;95391.03;;;6.54;100.00
57606;BME280;43430;48.204;11.556;2023-04-25T00:21:19;95393.41;;;6.56;100.00
57606;BME280;43430;48.204;11.556;2023-04-25T00:23:45;95397.25;;;6.53;100.00
57606;BME280;43430;48.204;11.556;2023-04-25T00:26:11;95385.78;;;6.54;100.00
57606;BME280;43430;48.204;11.556;2023-04-25T00:28:37;95396.25;;;6.54;100.00
57606;BME280;43430;48.204;11.556;2023-04-25T00:31:03;95395.25;;;6.55;100.00
57606;BME280;43430;48.204;11.556;2023-04-25T00:33:29;95396.22;;;6.61;100.00
57606;BME280;43430;48.204;11.556;2023-04-25T00:35:55;95402.69;;;6.58;100.00
57606;BME280;43430;48.204;11.556;2023-04-25T00:38:20;95394.59;;;6.60;100.00
57606;BME280;43430;48.204;11.556;2023-04-25T00:40:46;95387.53;;;6.60;100.00
57606;BME280;43430;48.204;11.556;2023-04-25T00:43:14;95381.25;;;6.68;100.00
57606;BME280;43430;48.204;11.556;2023-04-25T00:45:39;95379.47;;;6.62;100.00
57606;BME280;43430;48.204;11.556;2023-04-25T00:48:05;95375.47;;;6.59;100.00
57606;BME280;43430;48.204;11.556;2023-04-25T00:50:33;95379.34;;;6.50;100.00
57606;BME280;43430;48.204;11.556;2023-04-25T00:52:58;95380.59;;;6.48;100.00
57606;BME280;43430;48.204;11.556;2023-04-25T00:55:24;95379.56;;;6.49;100.00
57606;BME280;43430;48.204;11.556;2023-04-25T00:57:50;95374.97;;;6.44;100.00
57606;BME280;43430;48.204;11.556;2023-04-25T01:00:15;95375.81;;;6.38;100.00
57606;BME280;43430;48.204;11.556;2023-04-25T01:02:41;95368.41;;;6.28;100.00
57606;BME280;43430;48.204;11.556;2023-04-25T01:05:07;95372.63;;;6.23;100.00
57606;BME280;43430;48.204;11.556;2023-04-25T01:07:34;95376.69;;;6.18;100.00
57606;BME280;43430;48.204;11.556;2023-04-25T01:09:59;95381.34;;;6.16;100.00
57606;BME280;43430;48.204;11.556;2023-04-25T01:12:24;95385.19;;;6.14;100.00
57606;BME280;43430;48.204;11.556;2023-04-25T01:14:50;95383.19;;;6.09;100.00
57606;BME280;43430;48.204;11.556;2023-04-25T01:17:16;95389.63;;;6.07;100.00
57606;BME280;43430;48.204;11.556;2023-04-25T01:19:42;95391.25;;;6.01;100.00
57606;BME280;43430;48.204;11.556;2023-04-25T01:22:08;95387.47;;;5.97;100.00
57606;BME280;43430;48.204;11.556;2023-04-25T01:24:36;95388.47;;;5.96;100.00
57606;BME280;43430;48.204;11.556;2023-04-25T01:27:02;95389.06;;;5.85;100.00
57606;BME280;43430;48.204;11.556;2023-04-25T01:29:28;95386.88;;;5.82;100.00
57606;BME280;43430;48.204;11.556;2023-04-25T01:31:54;95393.31;;;5.79;100.00
57606;BME280;43430;48.204;11.556;2023-04-25T01:34:20;95392.94;;;5.76;100.00
57606;BME280;43430;48.204;11.556;2023-04-25T01:36:48;95384.88;;;5.70;100.00
57606;BME280;43430;48.204;11.556;2023-04-25T01:39:14;95382.28;;;5.64;100.00
57606;BME280;43430;48.204;11.556;2023-04-25T01:41:40;95380.69;;;5.56;100.00
57606;BME280;43430;48.204;11.556;2023-04-25T01:44:05;95382.75;;;5.47;100.00
57606;BME280;43430;48.204;11.556;2023-04-25T01:46:32;95386.16;;;5.48;100.00
57606;BME280;43430;48.204;11.556;2023-04-25T01:48:57;95385.16;;;5.49;100.00
57606;BME280;43430;48.204;11.556;2023-04-25T01:51:22;95390.19;;;5.44;100.00
57606;BME280;43430;48.204;11.556;2023-04-25T01:53:48;95388.97;;;5.40;100.00
57606;BME280;43430;48.204;11.556;2023-04-25T01:56:13;95380.53;;;5.38;100.00
57606;BME280;43430;48.204;11.556;2023-04-25T01:58:39;95386.59;;;5.32;100.00
57606;BME280;43430;48.204;11.556;2023-04-25T02:01:04;95389.00;;;5.27;100.00
57606;BME280;43430;48.204;11.556;2023-04-25T02:03:31;95383.78;;;5.27;100.00
57606;BME280;43430;48.204;11.556;2023-04-25T02:05:56;95385.78;;;5.31;100.00
57606;BME280;43430;48.204;11.556;2023-04-25T02:08:22;95383.34;;;5.30;100.00
57606;BME280;43430;48.204;11.556;2023-04-25T02:10:47;95384.38;;;5.29;100.00
57606;BME280;43430;48.204;11.556;2023-04-25T02:13:12;95380.53;;;5.38;100.00
57606;BME280;43430;48.204;11.556;2023-04-25T02:15:38;95380.53;;;5.44;100.00
57606;BME280;43430;48.204;11.556;2023-04-25T02:18:03;95374.69;;;5.42;100.00
57606;BME280;43430;48.204;11.556;2023-04-25T02:20:29;95379.75;;;5.24;100.00
57606;BME280;43430;48.204;11.556;2023-04-25T02:22:55;95386.19;;;5.28;100.00
57606;BME280;43430;48.204;11.556;2023-04-25T02:25:21;95384.38;;;5.35;100.00
57606;BME280;43430;48.204;11.556;2023-04-25T02:27:47;95376.50;;;5.42;100.00
57606;BME280;43430;48.204;11.556;2023-04-25T02:30:13;95374.06;;;5.47;100.00
57606;BME280;43430;48.204;11.556;2023-04-25T02:32:39;95374.03;;;5.60;100.00
57606;BME280;43430;48.204;11.556;2023-04-25T02:35:05;95366.59;;;5.64;100.00
57606;BME280;43430;48.204;11.556;2023-04-25T02:37:34;95350.69;;;5.72;100.00
57606;BME280;43430;48.204;11.556;2023-04-25T02:40:00;95351.28;;;5.67;100.00
57606;BME280;43430;48.204;11.556;2023-04-25T02:42:26;95353.50;;;5.70;100.00
57606;BME280;43430;48.204;11.556;2023-04-25T02:44:52;95347.84;;;5.74;100.00
57606;BME280;43430;48.204;11.556;2023-04-25T02:47:17;95350.25;;;5.82;100.00
57606;BME280;43430;48.204;11.556;2023-04-25T02:49:42;95355.28;;;5.83;100.00
57606;BME280;43430;48.204;11.556;2023-04-25T02:52:08;95348.63;;;5.94;100.00
57606;BME280;43430;48.204;11.556;2023-04-25T02:54:34;95352.25;;;5.93;100.00
57606;BME280;43430;48.204;11.556;2023-04-25T02:57:00;95343.56;;;5.99;100.00
57606;BME280;43430;48.204;11.556;2023-04-25T02:59:26;95344.19;;;5.94;100.00
57606;BME280;43430;48.204;11.556;2023-04-25T03:01:51;95336.13;;;5.89;100.00
57606;BME280;43430;48.204;11.556;2023-04-25T03:04:16;95338.34;;;5.99;100.00
57606;BME280;43430;48.204;11.556;2023-04-25T03:06:43;95340.97;;;5.99;100.00
57606;BME280;43430;48.204;11.556;2023-04-25T03:09:09;95334.09;;;5.98;100.00
57606;BME280;43430;48.204;11.556;2023-04-25T03:11:34;95336.31;;;6.01;100.00
57606;BME280;43430;48.204;11.556;2023-04-25T03:14:00;95340.31;;;6.04;100.00
57606;BME280;43430;48.204;11.556;2023-04-25T03:16:25;95331.69;;;6.03;100.00
57606;BME280;43430;48.204;11.556;2023-04-25T03:18:51;95330.66;;;6.04;100.00
57606;BME280;43430;48.204;11.556;2023-04-25T03:21:16;95327.88;;;5.99;100.00
57606;BME280;43430;48.204;11.556;2023-04-25T03:23:42;95318.19;;;6.06;100.00
57606;BME280;43430;48.204;11.556;2023-04-25T03:26:07;95311.31;;;6.05;100.00
57606;BME280;43430;48.204;11.556;2023-04-25T03:28:33;95302.06;;;6.09;100.00
57606;BME280;43430;48.204;11.556;2023-04-25T03:30:58;95326.16;;;6.18;100.00
57606;BME280;43430;48.204;11.556;2023-04-25T03:33:23;95324.34;;;6.18;100.00
57606;BME280;43430;48.204;11.556;2023-04-25T03:35:49;95328.00;;;6.11;100.00
57606;BME280;43430;48.204;11.556;2023-04-25T03:38:15;95327.63;;;6.07;100.00
57606;BME280;43430;48.204;11.556;2023-04-25T03:40:40;95324.41;;;6.05;100.00
57606;BME280;43430;48.204;11.556;2023-04-25T03:43:06;95326.44;;;6.03;100.00
57606;BME280;43430;48.204;11.556;2023-04-25T03:45:31;95321.63;;;6.00;100.00
57606;BME280;43430;48.204;11.556;2023-04-25T03:47:56;95314.78;;;5.99;100.00
57606;BME280;43430;48.204;11.556;2023-04-25T03:50:22;95310.16;;;5.88;100.00
57606;BME280;43430;48.204;11.556;2023-04-25T03:52:47;95316.81;;;5.90;100.00
57606;BME280;43430;48.204;11.556;2023-04-25T03:55:12;95313.19;;;5.85;100.00
57606;BME280;43430;48.204;11.556;2023-04-25T03:57:38;95318.66;;;5.83;100.00
57606;BME280;43430;48.204;11.556;2023-04-25T04:00:03;95321.03;;;5.85;100.00
57606;BME280;43430;48.204;11.556;2023-04-25T04:02:29;95314.97;;;5.91;100.00
57606;BME280;43430;48.204;11.556;2023-04-25T04:04:55;95316.84;;;5.84;100.00
57606;BME280;43430;48.204;11.556;2023-04-25T04:07:21;95316.63;;;5.85;100.00
57606;BME280;43430;48.204;11.556;2023-04-25T04:09:47;95317.63;;;5.84;100.00
57606;BME280;43430;48.204;11.556;2023-04-25T04:12:12;95312.81;;;5.81;100.00
57606;BME280;43430;48.204;11.556;2023-04-25T04:14:37;95321.03;;;5.85;100.00
57606;BME280;43430;48.204;11.556;2023-04-25T04:17:03;95319.84;;;5.81;100.00
57606;BME280;43430;48.204;11.556;2023-04-25T04:19:28;95316.41;;;5.87;100.00
57606;BME280;43430;48.204;11.556;2023-04-25T04:21:54;95317.22;;;5.87;100.00
57606;BME280;43430;48.204;11.556;2023-04-25T04:24:19;95315.44;;;5.81;100.00
57606;BME280;43430;48.204;11.556;2023-04-25T04:26:44;95321.88;;;5.85;100.00
57606;BME280;43430;48.204;11.556;2023-04-25T04:29:11;95320.47;;;5.83;100.00
57606;BME280;43430;48.204;11.556;2023-04-25T04:31:36;95319.88;;;5.74;100.00
57606;BME280;43430;48.204;11.556;2023-04-25T04:34:02;95320.06;;;5.79;100.00
57606;BME280;43430;48.204;11.556;2023-04-25T04:36:29;95315.66;;;5.80;100.00
57606;BME280;43430;48.204;11.556;2023-04-25T04:38:54;95320.84;;;5.86;100.00
57606;BME280;43430;48.204;11.556;2023-04-25T04:41:21;95319.66;;;5.82;100.00
57606;BME280;43430;48.204;11.556;2023-04-25T04:43:47;95322.44;;;5.87;100.00
57606;BME280;43430;48.204;11.556;2023-04-25T04:46:12;95318.88;;;5.82;100.00
57606;BME280;43430;48.204;11.556;2023-04-25T04:48:38;95330.53;;;5.79;100.00
57606;BME280;43430;48.204;11.556;2023-04-25T04:51:05;95330.53;;;5.79;100.00
57606;BME280;43430;48.204;11.556;2023-04-25T04:53:31;95333.31;;;5.91;100.00
57606;BME280;43430;48.204;11.556;2023-04-25T04:55:57;95330.09;;;5.89;100.00
57606;BME280;43430;48.204;11.556;2023-04-25T04:58:22;95318.00;;;5.88;100.00
57606;BME280;43430;48.204;11.556;2023-04-25T05:00:48;95320.44;;;5.96;100.00
57606;BME280;43430;48.204;11.556;2023-04-25T05:03:13;95322.66;;;5.99;100.00
57606;BME280;43430;48.204;11.556;2023-04-25T05:05:38;95324.47;;;5.92;100.00
57606;BME280;43430;48.204;11.556;2023-04-25T05:08:05;95308.75;;;5.92;100.00
57606;BME280;43430;48.204;11.556;2023-04-25T05:10:31;95316.59;;;5.99;100.00
57606;BME280;43430;48.204;11.556;2023-04-25T05:12:56;95314.56;;;6.01;100.00
57606;BME280;43430;48.204;11.556;2023-04-25T05:15:22;95309.56;;;5.99;100.00
57606;BME280;43430;48.204;11.556;2023-04-25T05:17:47;95315.78;;;5.98;100.00
57606;BME280;43430;48.204;11.556;2023-04-25T05:20:12;95317.00;;;6.02;100.00
57606;BME280;43430;48.204;11.556;2023-04-25T05:22:39;95324.06;;;5.95;100.00
57606;BME280;43430;48.204;11.556;2023-04-25T05:25:07;95322.44;;;5.94;100.00
57606;BME280;43430;48.204;11.556;2023-04-25T05:27:32;95317.41;;;5.99;100.00
57606;BME280;43430;48.204;11.556;2023-04-25T05:29:58;95321.00;;;5.98;100.00
57606;BME280;43430;48.204;11.556;2023-04-25T05:32:23;95335.34;;;5.89;100.00
57606;BME280;43430;48.204;11.556;2023-04-25T05:34:50;95340.97;;;5.86;100.00
57606;BME280;43430;48.204;11.556;2023-04-25T05:37:16;95339.59;;;5.77;100.00
57606;BME280;43430;48.204;11.556;2023-04-25T05:39:42;95345.84;;;5.76;100.00
57606;BME280;43430;48.204;11.556;2023-04-25T05:42:07;95350.69;;;5.79;100.00
57606;BME280;43430;48.204;11.556;2023-04-25T05:44:32;95352.88;;;5.82;100.00
57606;BME280;43430;48.204;11.556;2023-04-25T05:46:58;95347.44;;;5.77;100.00
57606;BME280;43430;48.204;11.556;2023-04-25T05:49:23;95348.84;;;5.79;100.00
57606;BME280;43430;48.204;11.556;2023-04-25T05:51:49;95358.28;;;5.87;100.00
57606;BME280;43430;48.204;11.556;2023-04-25T05:54:14;95365.13;;;5.94;100.00
57606;BME280;43430;48.204;11.556;2023-04-25T05:56:40;95365.34;;;5.80;100.00
57606;BME280;43430;48.204;11.556;2023-04-25T05:59:05;95356.69;;;5.79;100.00
57606;BME280;43430;48.204;11.556;2023-04-25T06:01:31;95357.25;;;5.88;100.00
57606;BME280;43430;48.204;11.556;2023-04-25T06:03:56;95365.31;;;5.86;100.00
57606;BME280;43430;48.204;11.556;2023-04-25T06:06:22;95363.91;;;5.90;100.00
57606;BME280;43430;48.204;11.556;2023-04-25T06:08:47;95365.50;;;5.98;100.00
57606;BME280;43430;48.204;11.556;2023-04-25T06:11:12;95367.56;;;5.83;100.00
57606;BME280;43430;48.204;11.556;2023-04-25T06:13:38;95368.38;;;5.77;100.00
57606;BME280;43430;48.204;11.556;2023-04-25T06:16:03;95379.25;;;5.74;100.00
57606;BME280;43430;48.204;11.556;2023-04-25T06:18:29;95370.38;;;5.75;100.00
57606;BME280;43430;48.204;11.556;2023-04-25T06:20:55;95360.75;;;5.68;100.00
57606;BME280;43430;48.204;11.556;2023-04-25T06:23:20;95363.38;;;5.75;100.00
57606;BME280;43430;48.204;11.556;2023-04-25T06:25:46;95357.94;;;5.70;100.00
57606;BME280;43430;48.204;11.556;2023-04-25T06:28:11;95352.28;;;5.80;100.00
57606;BME280;43430;48.204;11.556;2023-04-25T06:30:37;95344.56;;;5.98;100.00
57606;BME280;43430;48.204;11.556;2023-04-25T06:33:02;95353.03;;;6.00;100.00
57606;BME280;43430;48.204;11.556;2023-04-25T06:35:27;95344.91;;;6.15;100.00
57606;BME280;43430;48.204;11.556;2023-04-25T06:37:53;95353.19;;;6.05;100.00
57606;BME280;43430;48.204;11.556;2023-04-25T06:40:18;95355.03;;;5.98;100.00
57606;BME280;43430;48.204;11.556;2023-04-25T06:42:43;95360.25;;;6.05;100.00
57606;BME280;43430;48.204;11.556;2023-04-25T06:45:09;95367.53;;;6.03;100.00
57606;BME280;43430;48.204;11.556;2023-04-25T06:47:35;95362.63;;;6.13;100.00
57606;BME280;43430;48.204;11.556;2023-04-25T06:50:00;95356.66;;;6.37;100.00
57606;BME280;43430;48.204;11.556;2023-04-25T06:52:25;95352.56;;;6.80;100.00
57606;BME280;43430;48.204;11.556;2023-04-25T06:54:51;95340.41;;;7.10;100.00
57606;BME280;43430;48.204;11.556;2023-04-25T06:57:16;95343.03;;;7.10;100.00
57606;BME280;43430;48.204;11.556;2023-04-25T06:59:42;95339.50;;;6.73;100.00
57606;BME280;43430;48.204;11.556;2023-04-25T07:02:07;95337.25;;;6.77;100.00
57606;BME280;43430;48.204;11.556;2023-04-25T07:04:32;95335.59;;;6.57;100.00
57606;BME280;43430;48.204;11.556;2023-04-25T07:06:58;95344.69;;;6.55;100.00
57606;BME280;43430;48.204;11.556;2023-04-25T07:09:23;95338.72;;;6.41;100.00
57606;BME280;43430;48.204;11.556;2023-04-25T07:11:48;95349.28;;;6.59;100.00
57606;BME280;43430;48.204;11.556;2023-04-25T07:14:14;95350.78;;;6.74;100.00
57606;BME280;43430;48.204;11.556;2023-04-25T07:16:40;95350.25;;;6.65;100.00
57606;BME280;43430;48.204;11.556;2023-04-25T07:19:05;95363.69;;;6.44;100.00
57606;BME280;43430;48.204;11.556;2023-04-25T07:21:30;95371.59;;;6.37;100.00
57606;BME280;43430;48.204;11.556;2023-04-25T07:23:56;95363.50;;;6.38;100.00
57606;BME280;43430;48.204;11.556;2023-04-25T07:26:22;95365.31;;;6.38;100.00
57606;BME280;43430;48.204;11.556;2023-04-25T07:28:47;95357.34;;;6.58;100.00
57606;BME280;43430;48.204;11.556;2023-04-25T07:31:16;95351.00;;;6.72;100.00
57606;BME280;43430;48.204;11.556;2023-04-25T07:33:43;95345.91;;;6.77;100.00
57606;BME280;43430;48.204;11.556;2023-04-25T07:36:08;95342.72;;;7.00;100.00
57606;BME280;43430;48.204;11.556;2023-04-25T07:38:34;95336.31;;;6.96;100.00
57606;BME280;43430;48.204;11.556;2023-04-25T07:40:59;95329.63;;;7.00;100.00
57606;BME280;43430;48.204;11.556;2023-04-25T07:43:25;95319.56;;;6.97;100.00
57606;BME280;43430;48.204;11.556;2023-04-25T07:45:51;95316.44;;;7.07;100.00
57606;BME280;43430;48.204;11.556;2023-04-25T07:48:17;95306.34;;;7.10;100.00
57606;BME280;43430;48.204;11.556;2023-04-25T07:50:46;95317.56;;;7.18;100.00
57606;BME280;43430;48.204;11.556;2023-04-25T07:53:11;95317.31;;;7.44;100.00
57606;BME280;43430;48.204;11.556;2023-04-25T07:55:37;95309.50;;;7.56;100.00
57606;BME280;43430;48.204;11.556;2023-04-25T07:58:06;95298.13;;;7.62;100.00
57606;BME280;43430;48.204;11.556;2023-04-25T08:00:31;95285.50;;;7.71;100.00
57606;BME280;43430;48.204;11.556;2023-04-25T08:02:57;95296.75;;;7.78;100.00
57606;BME280;43430;48.204;11.556;2023-04-25T08:05:22;95289.72;;;7.90;100.00
57606;BME280;43430;48.204;11.556;2023-04-25T08:07:47;95282.19;;;7.94;100.00
57606;BME280;43430;48.204;11.556;2023-04-25T08:10:13;95278.97;;;8.10;100.00
57606;BME280;43430;48.204;11.556;2023-04-25T08:12:38;95280.13;;;8.14;100.00
57606;BME280;43430;48.204;11.556;2023-04-25T08:15:05;95277.06;;;8.47;100.00
57606;BME280;43430;48.204;11.556;2023-04-25T08:17:31;95270.31;;;8.40;100.00
57606;BME280;43430;48.204;11.556;2023-04-25T08:19:56;95277.44;;;8.74;100.00
57606;BME280;43430;48.204;11.556;2023-04-25T08:22:22;95281.22;;;8.78;100.00
57606;BME280;43430;48.204;11.556;2023-04-25T08:24:47;95273.28;;;8.67;100.00
57606;BME280;43430;48.204;11.556;2023-04-25T08:27:13;95273.56;;;9.00;100.00
57606;BME280;43430;48.204;11.556;2023-04-25T08:29:38;95270.13;;;8.88;100.00
57606;BME280;43430;48.204;11.556;2023-04-25T08:32:04;95265.78;;;8.94;100.00
57606;BME280;43430;48.204;11.556;2023-04-25T08:34:30;95279.63;;;8.89;100.00
57606;BME280;43430;48.204;11.556;2023-04-25T08:37:01;95275.22;;;8.60;100.00
57606;BME280;43430;48.204;11.556;2023-04-25T08:39:26;95284.38;;;8.27;100.00
57606;BME280;43430;48.204;11.556;2023-04-25T08:41:52;95282.97;;;8.13;100.00
57606;BME280;43430;48.204;11.556;2023-04-25T08:44:19;95274.59;;;8.34;100.00
57606;BME280;43430;48.204;11.556;2023-04-25T08:46:46;95285.84;;;8.53;100.00
57606;BME280;43430;48.204;11.556;2023-04-25T08:49:16;95279.72;;;8.71;100.00
57606;BME280;43430;48.204;11.556;2023-04-25T08:51:46;95280.41;;;9.01;100.00
57606;BME280;43430;48.204;11.556;2023-04-25T08:54:13;95276.41;;;9.22;100.00
57606;BME280;43430;48.204;11.556;2023-04-25T08:56:48;95269.66;;;9.26;100.00
57606;BME280;43430;48.204;11.556;2023-04-25T08:59:14;95272.88;;;9.17;100.00
57606;BME280;43430;48.204;11.556;2023-04-25T09:01:40;95272.75;;;9.23;100.00
57606;BME280;43430;48.204;11.556;2023-04-25T09:04:06;95272.75;;;9.12;100.00
57606;BME280;43430;48.204;11.556;2023-04-25T09:06:31;95279.69;;;9.41;100.00
57606;BME280;43430;48.204;11.556;2023-04-25T09:09:05;95275.13;;;9.48;100.00
57606;BME280;43430;48.204;11.556;2023-04-25T09:11:35;95266.94;;;9.73;100.00
57606;BME280;43430;48.204;11.556;2023-04-25T09:14:19;95271.84;;;9.70;100.00
57606;BME280;43430;48.204;11.556;2023-04-25T09:19:22;95272.50;;;9.37;100.00
57606;BME280;43430;48.204;11.556;2023-04-25T09:21:49;95279.25;;;9.44;100.00
57606;BME280;43430;48.204;11.556;2023-04-25T09:24:14;95270.53;;;9.56;100.00
57606;BME280;43430;48.204;11.556;2023-04-25T09:26:40;95263.69;;;9.83;100.00
57606;BME280;43430;48.204;11.556;2023-04-25T09:29:06;95262.03;;;10.06;100.00
57606;BME280;43430;48.204;11.556;2023-04-25T09:31:33;95259.09;;;10.19;100.00
57606;BME280;43430;48.204;11.556;2023-04-25T09:33:59;95271.22;;;10.20;100.00
57606;BME280;43430;48.204;11.556;2023-04-25T09:36:27;95275.13;;;10.29;100.00
57606;BME280;43430;48.204;11.556;2023-04-25T09:38:52;95266.34;;;10.40;100.00
57606;BME280;43430;48.204;11.556;2023-04-25T09:41:23;95261.03;;;10.23;100.00
57606;BME280;43430;48.204;11.556;2023-04-25T09:43:49;95267.28;;;10.06;100.00
57606;BME280;43430;48.204;11.556;2023-04-25T09:46:15;95271.31;;;9.96;100.00
57606;BME280;43430;48.204;11.556;2023-04-25T09:48:48;95270.34;;;10.14;100.00
57606;BME280;43430;48.204;11.556;2023-04-25T09:51:14;95271.66;;;10.29;100.00
57606;BME280;43430;48.204;11.556;2023-04-25T09:53:41;95267.25;;;10.63;100.00
57606;BME280;43430;48.204;11.556;2023-04-25T09:56:09;95274.69;;;11.00;100.00
57606;BME280;43430;48.204;11.556;2023-04-25T09:58:35;95267.25;;;10.97;100.00
57606;BME280;43430;48.204;11.556;2023-04-25T10:01:04;95272.03;;;11.00;100.00
57606;BME280;43430;48.204;11.556;2023-04-25T10:03:32;95262.53;;;10.82;100.00
57606;BME280;43430;48.204;11.556;2023-04-25T10:06:02;95265.91;;;10.60;100.00
57606;BME280;43430;48.204;11.556;2023-04-25T10:08:33;95259.00;;;10.59;100.00
57606;BME280;43430;48.204;11.556;2023-04-25T10:11:04;95263.50;;;10.92;100.00
57606;BME280;43430;48.204;11.556;2023-04-25T10:13:30;95252.34;;;11.07;100.00
57606;BME280;43430;48.204;11.556;2023-04-25T10:16:01;95263.81;;;10.79;100.00
57606;BME280;43430;48.204;11.556;2023-04-25T10:18:28;95262.22;;;10.61;100.00
57606;BME280;43430;48.204;11.556;2023-04-25T10:20:55;95249.28;;;10.60;100.00
57606;BME280;43430;48.204;11.556;2023-04-25T10:23:21;95249.94;;;10.67;100.00
57606;BME280;43430;48.204;11.556;2023-04-25T10:25:47;95260.78;;;10.71;100.00
57606;BME280;43430;48.204;11.556;2023-04-25T10:28:13;95259.16;;;10.69;100.00
57606;BME280;43430;48.204;11.556;2023-04-25T10:30:57;95262.94;;;10.57;100.00
57606;BME280;43430;48.204;11.556;2023-04-25T10:33:36;95269.84;;;10.29;100.00
57606;BME280;43430;48.204;11.556;2023-04-25T10:36:13;95271.03;;;10.10;100.00
57606;BME280;43430;48.204;11.556;2023-04-25T10:38:39;95282.78;;;9.90;100.00
57606;BME280;43430;48.204;11.556;2023-04-25T10:41:09;95288.13;;;9.67;100.00
57606;BME280;43430;48.204;11.556;2023-04-25T10:43:37;95298.59;;;9.26;100.00
57606;BME280;43430;48.204;11.556;2023-04-25T10:48:52;95312.75;;;8.78;100.00
57606;BME280;43430;48.204;11.556;2023-04-25T10:56:24;95341.13;;;8.28;100.00
57606;BME280;43430;48.204;11.556;2023-04-25T10:58:50;95360.28;;;7.80;100.00
57606;BME280;43430;48.204;11.556;2023-04-25T11:01:21;95367.22;;;7.93;100.00
57606;BME280;43430;48.204;11.556;2023-04-25T11:03:46;95378.88;;;7.97;100.00
57606;BME280;43430;48.204;11.556;2023-04-25T11:06:46;95375.75;;;7.70;100.00
57606;BME280;43430;48.204;11.556;2023-04-25T11:09:18;95395.34;;;7.49;100.00
57606;BME280;43430;48.204;11.556;2023-04-25T11:11:53;95397.66;;;7.38;100.00
57606;BME280;43430;48.204;11.556;2023-04-25T11:14:19;95415.25;;;7.31;100.00
57606;BME280;43430;48.204;11.556;2023-04-25T11:16:45;95417.09;;;7.31;100.00
57606;BME280;43430;48.204;11.556;2023-04-25T11:19:10;95424.06;;;7.62;100.00
57606;BME280;43430;48.204;11.556;2023-04-25T11:21:36;95418.88;;;7.99;100.00
57606;BME280;43430;48.204;11.556;2023-04-25T11:24:02;95412.38;;;8.20;100.00
57606;BME280;43430;48.204;11.556;2023-04-25T11:26:27;95397.09;;;8.28;100.00
57606;BME280;43430;48.204;11.556;2023-04-25T11:28:57;95394.53;;;8.22;100.00
57606;BME280;43430;48.204;11.556;2023-04-25T11:31:24;95398.72;;;8.29;100.00
57606;BME280;43430;48.204;11.556;2023-04-25T11:33:50;95405.06;;;8.03;100.00
57606;BME280;43430;48.204;11.556;2023-04-25T11:36:16;95408.50;;;7.85;100.00
57606;BME280;43430;48.204;11.556;2023-04-25T11:38:42;95414.19;;;8.01;100.00
57606;BME280;43430;48.204;11.556;2023-04-25T11:41:07;95411.75;;;8.18;100.00
57606;BME280;43430;48.204;11.556;2023-04-25T11:43:32;95402.69;;;8.02;100.00
57606;BME280;43430;48.204;11.556;2023-04-25T11:45:58;95399.22;;;8.01;100.00
57606;BME280;43430;48.204;11.556;2023-04-25T11:48:23;95400.34;;;8.12;100.00
57606;BME280;43430;48.204;11.556;2023-04-25T11:50:49;95398.72;;;8.29;100.00
57606;BME280;43430;48.204;11.556;2023-04-25T11:53:17;95395.41;;;8.34;100.00
57606;BME280;43430;48.204;11.556;2023-04-25T11:55:43;95398.13;;;8.46;100.00
57606;BME280;43430;48.204;11.556;2023-04-25T11:58:08;95425.69;;;8.37;100.00
57606;BME280;43430;48.204;11.556;2023-04-25T12:00:35;95441.97;;;8.27;100.00
57606;BME280;43430;48.204;11.556;2023-04-25T12:03:00;95464.72;;;7.28;100.00
57606;BME280;43430;48.204;11.556;2023-04-25T12:05:30;95490.34;;;6.56;100.00
57606;BME280;43430;48.204;11.556;2023-04-25T12:07:56;95513.03;;;5.84;100.00
57606;BME280;43430;48.204;11.556;2023-04-25T12:10:21;95541.25;;;5.62;100.00
57606;BME280;43430;48.204;11.556;2023-04-25T12:12:49;95551.69;;;5.55;100.00
57606;BME280;43430;48.204;11.556;2023-04-25T12:15:22;95557.09;;;5.47;100.00
57606;BME280;43430;48.204;11.556;2023-04-25T12:17:49;95561.94;;;5.50;100.00
57606;BME280;43430;48.204;11.556;2023-04-25T12:20:17;95567.97;;;5.64;100.00
57606;BME280;43430;48.204;11.556;2023-04-25T12:22:45;95573.03;;;5.72;100.00
57606;BME280;43430;48.204;11.556;2023-04-25T12:25:20;95569.19;;;5.75;100.00
57606;BME280;43430;48.204;11.556;2023-04-25T12:28:21;95583.94;;;5.96;100.00
57606;BME280;43430;48.204;11.556;2023-04-25T12:31:01;95583.69;;;5.84;100.00
57606;BME280;43430;48.204;11.556;2023-04-25T12:33:29;95587.34;;;5.96;100.00
57606;BME280;43430;48.204;11.556;2023-04-25T12:35:56;95592.38;;;6.17;100.00
57606;BME280;43430;48.204;11.556;2023-04-25T12:38:35;95588.72;;;6.12;100.00
57606;BME280;43430;48.204;11.556;2023-04-25T12:41:01;95587.13;;;6.11;100.00
57606;BME280;43430;48.204;11.556;2023-04-25T12:43:26;95599.19;;;6.05;100.00
57606;BME280;43430;48.204;11.556;2023-04-25T12:45:53;95599.81;;;6.14;100.00
57606;BME280;43430;48.204;11.556;2023-04-25T12:48:19;95603.06;;;6.09;100.00
57606;BME280;43430;48.204;11.556;2023-04-25T12:50:45;95611.50;;;5.98;100.00
57606;BME280;43430;48.204;11.556;2023-04-25T12:53:23;95613.13;;;5.99;100.00
57606;BME280;43430;48.204;11.556;2023-04-25T12:55:49;95624.78;;;6.16;100.00
57606;BME280;43430;48.204;11.556;2023-04-25T12:58:17;95620.75;;;6.07;100.00